Terminal Aerodrome Forecast
Issued by NWS

Home | Current Version | Previous Version | Text Only | Print | Product List | Glossary On
Versions: 1 2 3 4 5 6 7 8 9 10 11 12 13 14 15 16
000
FTUS43 KMQT 290705 AAA
TAFSAW
TAF AMD
KSAW 290705Z 2907/3006 00000KT 5SM BR BKN002
     FM291100 18003KT 5SM BR SCT002 OVC200
     FM291300 19004KT P6SM SCT100 BKN200
     FM291500 20007KT P6SM BKN050
     FM292100 20008KT P6SM VCSH BKN080
     FM300000 20007KT P6SM BKN060=

USA.gov is the U.S. government's official web portal to all federal, state and local government web resources and services.